sensor_id;sensor_type;location;lat;lon;timestamp;P1;durP1;ratioP1;P2;durP2;ratioP2
58414;SDS011;44210;42.706;18.344;2023-06-14T00:00:33;6.40;;;3.83;;
58414;SDS011;44210;42.706;18.344;2023-06-14T00:03:00;5.15;;;3.50;;
58414;SDS011;44210;42.706;18.344;2023-06-14T00:05:26;5.60;;;4.05;;
58414;SDS011;44210;42.706;18.344;2023-06-14T00:07:54;4.65;;;3.80;;
58414;SDS011;44210;42.706;18.344;2023-06-14T00:10:20;5.82;;;4.50;;
58414;SDS011;44210;42.706;18.344;2023-06-14T00:12:46;8.38;;;6.78;;
58414;SDS011;44210;42.706;18.344;2023-06-14T00:15:13;7.28;;;5.97;;
58414;SDS011;44210;42.706;18.344;2023-06-14T00:17:39;7.13;;;4.90;;
58414;SDS011;44210;42.706;18.344;2023-06-14T00:20:05;6.60;;;4.45;;
58414;SDS011;44210;42.706;18.344;2023-06-14T00:22:31;5.95;;;4.63;;
58414;SDS011;44210;42.706;18.344;2023-06-14T00:24:58;8.73;;;4.60;;
58414;SDS011;44210;42.706;18.344;2023-06-14T00:27:24;5.05;;;4.43;;
58414;SDS011;44210;42.706;18.344;2023-06-14T00:29:51;8.73;;;5.65;;
58414;SDS011;44210;42.706;18.344;2023-06-14T00:32:18;7.95;;;5.10;;
58414;SDS011;44210;42.706;18.344;2023-06-14T00:34:44;5.53;;;4.93;;
58414;SDS011;44210;42.706;18.344;2023-06-14T00:37:10;7.82;;;5.88;;
58414;SDS011;44210;42.706;18.344;2023-06-14T00:39:36;7.47;;;6.00;;
58414;SDS011;44210;42.706;18.344;2023-06-14T00:42:02;8.75;;;6.72;;
58414;SDS011;44210;42.706;18.344;2023-06-14T00:44:30;6.88;;;5.85;;
58414;SDS011;44210;42.706;18.344;2023-06-14T00:46:56;5.95;;;5.30;;
58414;SDS011;44210;42.706;18.344;2023-06-14T00:49:22;9.13;;;5.53;;
58414;SDS011;44210;42.706;18.344;2023-06-14T00:51:49;8.70;;;5.75;;
58414;SDS011;44210;42.706;18.344;2023-06-14T00:54:16;6.35;;;4.97;;
58414;SDS011;44210;42.706;18.344;2023-06-14T00:56:42;6.03;;;4.88;;
58414;SDS011;44210;42.706;18.344;2023-06-14T00:59:10;5.35;;;4.47;;
58414;SDS011;44210;42.706;18.344;2023-06-14T01:01:36;5.68;;;4.60;;
58414;SDS011;44210;42.706;18.344;2023-06-14T01:04:03;4.28;;;3.85;;
58414;SDS011;44210;42.706;18.344;2023-06-14T01:09:25;4.70;;;4.30;;
58414;SDS011;44210;42.706;18.344;2023-06-14T01:11:55;7.50;;;5.72;;
58414;SDS011;44210;42.706;18.344;2023-06-14T01:14:25;7.93;;;6.35;;
58414;SDS011;44210;42.706;18.344;2023-06-14T01:16:53;7.35;;;5.50;;
58414;SDS011;44210;42.706;18.344;2023-06-14T01:19:20;6.13;;;5.22;;
58414;SDS011;44210;42.706;18.344;2023-06-14T01:21:47;5.15;;;4.65;;
58414;SDS011;44210;42.706;18.344;2023-06-14T01:24:16;7.38;;;4.45;;
58414;SDS011;44210;42.706;18.344;2023-06-14T01:26:44;7.95;;;5.05;;
58414;SDS011;44210;42.706;18.344;2023-06-14T01:29:12;7.28;;;5.70;;
58414;SDS011;44210;42.706;18.344;2023-06-14T01:31:41;9.52;;;7.07;;
58414;SDS011;44210;42.706;18.344;2023-06-14T01:34:07;9.50;;;8.35;;
58414;SDS011;44210;42.706;18.344;2023-06-14T01:36:33;9.25;;;5.97;;
58414;SDS011;44210;42.706;18.344;2023-06-14T01:39:01;9.77;;;5.43;;
58414;SDS011;44210;42.706;18.344;2023-06-14T01:41:27;7.22;;;4.82;;
58414;SDS011;44210;42.706;18.344;2023-06-14T01:43:54;8.30;;;4.97;;
58414;SDS011;44210;42.706;18.344;2023-06-14T01:46:20;6.72;;;3.90;;
58414;SDS011;44210;42.706;18.344;2023-06-14T01:48:46;4.68;;;4.10;;
58414;SDS011;44210;42.706;18.344;2023-06-14T01:51:13;9.07;;;3.67;;
58414;SDS011;44210;42.706;18.344;2023-06-14T01:53:39;4.07;;;3.55;;
58414;SDS011;44210;42.706;18.344;2023-06-14T01:56:06;4.75;;;3.60;;
58414;SDS011;44210;42.706;18.344;2023-06-14T01:58:32;3.83;;;3.20;;
58414;SDS011;44210;42.706;18.344;2023-06-14T02:00:58;5.40;;;4.35;;
58414;SDS011;44210;42.706;18.344;2023-06-14T02:03:25;4.72;;;4.25;;
58414;SDS011;44210;42.706;18.344;2023-06-14T02:05:52;4.30;;;3.90;;
58414;SDS011;44210;42.706;18.344;2023-06-14T02:08:20;5.72;;;5.13;;
58414;SDS011;44210;42.706;18.344;2023-06-14T02:10:46;6.30;;;5.40;;
58414;SDS011;44210;42.706;18.344;2023-06-14T02:13:12;6.72;;;5.47;;
58414;SDS011;44210;42.706;18.344;2023-06-14T02:15:38;6.32;;;5.13;;
58414;SDS011;44210;42.706;18.344;2023-06-14T02:18:05;6.10;;;4.95;;
58414;SDS011;44210;42.706;18.344;2023-06-14T02:20:31;6.25;;;4.35;;
58414;SDS011;44210;42.706;18.344;2023-06-14T02:22:57;4.68;;;4.15;;
58414;SDS011;44210;42.706;18.344;2023-06-14T02:25:24;6.18;;;3.63;;
58414;SDS011;44210;42.706;18.344;2023-06-14T02:27:52;5.25;;;4.07;;
58414;SDS011;44210;42.706;18.344;2023-06-14T02:30:20;5.57;;;3.65;;
58414;SDS011;44210;42.706;18.344;2023-06-14T02:32:46;5.88;;;4.07;;
58414;SDS011;44210;42.706;18.344;2023-06-14T02:35:13;5.72;;;3.63;;
58414;SDS011;44210;42.706;18.344;2023-06-14T02:37:40;5.15;;;3.70;;
58414;SDS011;44210;42.706;18.344;2023-06-14T02:40:06;4.85;;;4.15;;
58414;SDS011;44210;42.706;18.344;2023-06-14T02:42:34;6.05;;;4.72;;
58414;SDS011;44210;42.706;18.344;2023-06-14T02:45:00;9.02;;;5.47;;
58414;SDS011;44210;42.706;18.344;2023-06-14T02:47:27;6.68;;;4.72;;
58414;SDS011;44210;42.706;18.344;2023-06-14T02:49:53;5.00;;;4.40;;
58414;SDS011;44210;42.706;18.344;2023-06-14T02:52:19;7.38;;;5.68;;
58414;SDS011;44210;42.706;18.344;2023-06-14T02:54:46;8.02;;;5.35;;
58414;SDS011;44210;42.706;18.344;2023-06-14T02:57:12;9.65;;;5.78;;
58414;SDS011;44210;42.706;18.344;2023-06-14T02:59:39;6.28;;;5.68;;
58414;SDS011;44210;42.706;18.344;2023-06-14T03:02:05;5.32;;;4.82;;
58414;SDS011;44210;42.706;18.344;2023-06-14T03:04:31;9.77;;;4.95;;
58414;SDS011;44210;42.706;18.344;2023-06-14T03:07:02;6.03;;;4.53;;
58414;SDS011;44210;42.706;18.344;2023-06-14T03:09:34;5.65;;;4.00;;
58414;SDS011;44210;42.706;18.344;2023-06-14T03:12:01;5.57;;;3.92;;
58414;SDS011;44210;42.706;18.344;2023-06-14T03:14:28;4.68;;;3.97;;
58414;SDS011;44210;42.706;18.344;2023-06-14T03:16:55;4.38;;;3.97;;
58414;SDS011;44210;42.706;18.344;2023-06-14T03:19:24;5.70;;;4.38;;
58414;SDS011;44210;42.706;18.344;2023-06-14T03:21:51;7.35;;;4.82;;
58414;SDS011;44210;42.706;18.344;2023-06-14T03:24:18;4.78;;;3.78;;
58414;SDS011;44210;42.706;18.344;2023-06-14T03:26:45;5.45;;;3.42;;
58414;SDS011;44210;42.706;18.344;2023-06-14T03:29:11;5.57;;;3.47;;
58414;SDS011;44210;42.706;18.344;2023-06-14T03:31:41;4.25;;;3.85;;
58414;SDS011;44210;42.706;18.344;2023-06-14T03:34:21;4.00;;;3.35;;
58414;SDS011;44210;42.706;18.344;2023-06-14T03:36:48;4.55;;;3.15;;
58414;SDS011;44210;42.706;18.344;2023-06-14T03:39:14;5.63;;;3.30;;
58414;SDS011;44210;42.706;18.344;2023-06-14T03:41:40;5.03;;;3.38;;
58414;SDS011;44210;42.706;18.344;2023-06-14T03:44:06;6.85;;;3.70;;
58414;SDS011;44210;42.706;18.344;2023-06-14T03:46:32;4.68;;;3.75;;
58414;SDS011;44210;42.706;18.344;2023-06-14T03:48:58;4.35;;;3.67;;
58414;SDS011;44210;42.706;18.344;2023-06-14T03:51:25;6.70;;;3.53;;
58414;SDS011;44210;42.706;18.344;2023-06-14T03:53:51;8.65;;;3.30;;
58414;SDS011;44210;42.706;18.344;2023-06-14T03:56:17;5.57;;;3.30;;
58414;SDS011;44210;42.706;18.344;2023-06-14T03:58:43;5.05;;;3.08;;
58414;SDS011;44210;42.706;18.344;2023-06-14T04:01:10;3.38;;;3.08;;
58414;SDS011;44210;42.706;18.344;2023-06-14T04:03:37;7.20;;;3.75;;
58414;SDS011;44210;42.706;18.344;2023-06-14T04:06:05;7.15;;;3.85;;
58414;SDS011;44210;42.706;18.344;2023-06-14T04:08:32;5.10;;;3.85;;
58414;SDS011;44210;42.706;18.344;2023-06-14T04:10:59;6.20;;;4.25;;
58414;SDS011;44210;42.706;18.344;2023-06-14T04:13:26;5.00;;;4.50;;
58414;SDS011;44210;42.706;18.344;2023-06-14T04:15:52;4.68;;;4.28;;
58414;SDS011;44210;42.706;18.344;2023-06-14T04:18:18;4.20;;;3.53;;
58414;SDS011;44210;42.706;18.344;2023-06-14T04:20:45;3.70;;;3.30;;
58414;SDS011;44210;42.706;18.344;2023-06-14T04:23:16;6.82;;;4.20;;
58414;SDS011;44210;42.706;18.344;2023-06-14T04:25:43;3.97;;;3.38;;
58414;SDS011;44210;42.706;18.344;2023-06-14T04:28:12;6.20;;;4.05;;
58414;SDS011;44210;42.706;18.344;2023-06-14T04:30:42;4.22;;;3.47;;
58414;SDS011;44210;42.706;18.344;2023-06-14T04:33:10;4.30;;;3.90;;
58414;SDS011;44210;42.706;18.344;2023-06-14T04:35:36;5.25;;;3.60;;
58414;SDS011;44210;42.706;18.344;2023-06-14T04:38:03;3.35;;;3.05;;
58414;SDS011;44210;42.706;18.344;2023-06-14T04:40:35;5.97;;;4.00;;
58414;SDS011;44210;42.706;18.344;2023-06-14T04:43:08;6.20;;;4.00;;
58414;SDS011;44210;42.706;18.344;2023-06-14T04:45:34;5.80;;;4.47;;
58414;SDS011;44210;42.706;18.344;2023-06-14T04:48:01;5.10;;;3.85;;
58414;SDS011;44210;42.706;18.344;2023-06-14T04:50:28;4.25;;;3.85;;
58414;SDS011;44210;42.706;18.344;2023-06-14T04:52:54;4.10;;;3.70;;
58414;SDS011;44210;42.706;18.344;2023-06-14T04:55:22;7.00;;;4.13;;
58414;SDS011;44210;42.706;18.344;2023-06-14T04:57:48;8.23;;;3.97;;
58414;SDS011;44210;42.706;18.344;2023-06-14T05:00:18;3.42;;;3.13;;
58414;SDS011;44210;42.706;18.344;2023-06-14T05:02:44;7.85;;;3.35;;
58414;SDS011;44210;42.706;18.344;2023-06-14T05:05:12;3.80;;;3.40;;
58414;SDS011;44210;42.706;18.344;2023-06-14T05:07:38;3.47;;;3.08;;
58414;SDS011;44210;42.706;18.344;2023-06-14T05:10:04;5.47;;;3.40;;
58414;SDS011;44210;42.706;18.344;2023-06-14T05:12:31;8.25;;;4.35;;
58414;SDS011;44210;42.706;18.344;2023-06-14T05:14:59;5.43;;;3.95;;
58414;SDS011;44210;42.706;18.344;2023-06-14T05:17:25;3.95;;;3.45;;
58414;SDS011;44210;42.706;18.344;2023-06-14T05:19:53;6.97;;;3.80;;
58414;SDS011;44210;42.706;18.344;2023-06-14T05:22:20;4.70;;;3.97;;
58414;SDS011;44210;42.706;18.344;2023-06-14T05:24:46;7.38;;;3.88;;
58414;SDS011;44210;42.706;18.344;2023-06-14T05:27:13;5.22;;;4.25;;
58414;SDS011;44210;42.706;18.344;2023-06-14T05:29:39;4.68;;;3.88;;
58414;SDS011;44210;42.706;18.344;2023-06-14T05:32:05;4.85;;;3.67;;
58414;SDS011;44210;42.706;18.344;2023-06-14T05:34:31;6.72;;;3.47;;
58414;SDS011;44210;42.706;18.344;2023-06-14T05:36:57;4.35;;;3.75;;
58414;SDS011;44210;42.706;18.344;2023-06-14T05:39:23;4.90;;;4.40;;
58414;SDS011;44210;42.706;18.344;2023-06-14T05:41:50;6.75;;;4.07;;
58414;SDS011;44210;42.706;18.344;2023-06-14T05:44:16;5.10;;;3.50;;
58414;SDS011;44210;42.706;18.344;2023-06-14T05:46:43;9.40;;;4.47;;
58414;SDS011;44210;42.706;18.344;2023-06-14T05:49:09;5.93;;;4.45;;
58414;SDS011;44210;42.706;18.344;2023-06-14T05:51:36;7.32;;;4.20;;
58414;SDS011;44210;42.706;18.344;2023-06-14T05:54:03;6.75;;;4.97;;
58414;SDS011;44210;42.706;18.344;2023-06-14T05:56:29;8.10;;;5.32;;
58414;SDS011;44210;42.706;18.344;2023-06-14T05:58:55;7.03;;;5.32;;
58414;SDS011;44210;42.706;18.344;2023-06-14T06:01:21;6.90;;;5.00;;
58414;SDS011;44210;42.706;18.344;2023-06-14T06:03:47;5.45;;;4.03;;
58414;SDS011;44210;42.706;18.344;2023-06-14T06:06:13;5.78;;;3.88;;
58414;SDS011;44210;42.706;18.344;2023-06-14T06:08:40;7.07;;;4.32;;
58414;SDS011;44210;42.706;18.344;2023-06-14T06:11:06;6.55;;;5.22;;
58414;SDS011;44210;42.706;18.344;2023-06-14T06:13:32;5.18;;;4.40;;
58414;SDS011;44210;42.706;18.344;2023-06-14T06:16:00;7.45;;;5.43;;
58414;SDS011;44210;42.706;18.344;2023-06-14T06:18:26;8.20;;;5.55;;
58414;SDS011;44210;42.706;18.344;2023-06-14T06:20:52;7.50;;;4.30;;
58414;SDS011;44210;42.706;18.344;2023-06-14T06:23:18;8.00;;;4.82;;
58414;SDS011;44210;42.706;18.344;2023-06-14T06:25:44;9.10;;;4.93;;
58414;SDS011;44210;42.706;18.344;2023-06-14T06:28:10;4.53;;;3.95;;
58414;SDS011;44210;42.706;18.344;2023-06-14T06:30:36;6.90;;;4.07;;
58414;SDS011;44210;42.706;18.344;2023-06-14T06:33:02;5.00;;;4.15;;
58414;SDS011;44210;42.706;18.344;2023-06-14T06:35:28;5.38;;;3.80;;
58414;SDS011;44210;42.706;18.344;2023-06-14T06:37:55;5.88;;;4.38;;
58414;SDS011;44210;42.706;18.344;2023-06-14T06:40:22;6.22;;;5.28;;
58414;SDS011;44210;42.706;18.344;2023-06-14T06:42:48;9.52;;;5.30;;
58414;SDS011;44210;42.706;18.344;2023-06-14T06:45:15;7.85;;;3.92;;
58414;SDS011;44210;42.706;18.344;2023-06-14T06:47:41;6.60;;;4.78;;
58414;SDS011;44210;42.706;18.344;2023-06-14T06:50:07;9.60;;;4.88;;
58414;SDS011;44210;42.706;18.344;2023-06-14T06:52:33;8.00;;;4.47;;
58414;SDS011;44210;42.706;18.344;2023-06-14T06:55:00;8.27;;;5.18;;
58414;SDS011;44210;42.706;18.344;2023-06-14T06:57:27;6.50;;;4.50;;
58414;SDS011;44210;42.706;18.344;2023-06-14T06:59:54;7.50;;;5.03;;
58414;SDS011;44210;42.706;18.344;2023-06-14T07:02:21;9.27;;;4.13;;
58414;SDS011;44210;42.706;18.344;2023-06-14T07:04:47;6.38;;;4.10;;
58414;SDS011;44210;42.706;18.344;2023-06-14T07:07:13;6.60;;;4.95;;
58414;SDS011;44210;42.706;18.344;2023-06-14T07:09:39;7.07;;;3.55;;
58414;SDS011;44210;42.706;18.344;2023-06-14T07:12:07;7.82;;;5.38;;
58414;SDS011;44210;42.706;18.344;2023-06-14T07:14:33;7.93;;;4.28;;
58414;SDS011;44210;42.706;18.344;2023-06-14T07:16:59;9.85;;;4.53;;
58414;SDS011;44210;42.706;18.344;2023-06-14T07:19:25;4.97;;;3.60;;
58414;SDS011;44210;42.706;18.344;2023-06-14T07:21:52;5.25;;;3.30;;
58414;SDS011;44210;42.706;18.344;2023-06-14T07:24:18;8.32;;;3.58;;
58414;SDS011;44210;42.706;18.344;2023-06-14T07:26:46;7.38;;;3.63;;
58414;SDS011;44210;42.706;18.344;2023-06-14T07:29:13;3.58;;;3.08;;
58414;SDS011;44210;42.706;18.344;2023-06-14T07:31:39;3.30;;;3.00;;
58414;SDS011;44210;42.706;18.344;2023-06-14T07:34:06;3.33;;;2.97;;
58414;SDS011;44210;42.706;18.344;2023-06-14T07:36:32;7.07;;;2.95;;
58414;SDS011;44210;42.706;18.344;2023-06-14T07:38:59;3.45;;;2.95;;
58414;SDS011;44210;42.706;18.344;2023-06-14T07:41:25;3.35;;;2.40;;
58414;SDS011;44210;42.706;18.344;2023-06-14T07:43:51;3.58;;;2.70;;
58414;SDS011;44210;42.706;18.344;2023-06-14T07:46:18;2.92;;;2.63;;
58414;SDS011;44210;42.706;18.344;2023-06-14T07:48:44;2.72;;;2.53;;
58414;SDS011;44210;42.706;18.344;2023-06-14T07:51:10;5.40;;;2.78;;
58414;SDS011;44210;42.706;18.344;2023-06-14T07:53:36;6.18;;;3.80;;
58414;SDS011;44210;42.706;18.344;2023-06-14T07:56:02;5.30;;;2.85;;
58414;SDS011;44210;42.706;18.344;2023-06-14T07:58:28;3.30;;;3.00;;
58414;SDS011;44210;42.706;18.344;2023-06-14T08:00:55;3.42;;;2.95;;
58414;SDS011;44210;42.706;18.344;2023-06-14T08:03:21;6.53;;;3.00;;
58414;SDS011;44210;42.706;18.344;2023-06-14T08:05:47;8.73;;;3.13;;
58414;SDS011;44210;42.706;18.344;2023-06-14T08:08:13;4.65;;;3.00;;
58414;SDS011;44210;42.706;18.344;2023-06-14T08:10:40;3.80;;;2.83;;
58414;SDS011;44210;42.706;18.344;2023-06-14T08:13:06;4.85;;;3.03;;
58414;SDS011;44210;42.706;18.344;2023-06-14T08:15:32;3.90;;;3.15;;
58414;SDS011;44210;42.706;18.344;2023-06-14T08:17:58;6.65;;;2.70;;
58414;SDS011;44210;42.706;18.344;2023-06-14T08:20:25;3.33;;;3.03;;
58414;SDS011;44210;42.706;18.344;2023-06-14T08:22:51;3.75;;;2.85;;
58414;SDS011;44210;42.706;18.344;2023-06-14T08:25:21;3.05;;;2.75;;
58414;SDS011;44210;42.706;18.344;2023-06-14T08:27:47;4.38;;;2.83;;
58414;SDS011;44210;42.706;18.344;2023-06-14T08:30:15;3.10;;;2.80;;
58414;SDS011;44210;42.706;18.344;2023-06-14T08:32:42;9.70;;;3.33;;
58414;SDS011;44210;42.706;18.344;2023-06-14T08:35:08;4.05;;;3.00;;
58414;SDS011;44210;42.706;18.344;2023-06-14T08:37:38;3.03;;;2.70;;
58414;SDS011;44210;42.706;18.344;2023-06-14T08:40:06;3.40;;;3.10;;
58414;SDS011;44210;42.706;18.344;2023-06-14T08:42:35;7.72;;;3.20;;
58414;SDS011;44210;42.706;18.344;2023-06-14T08:45:02;3.35;;;2.80;;
58414;SDS011;44210;42.706;18.344;2023-06-14T08:47:28;4.85;;;2.58;;
58414;SDS011;44210;42.706;18.344;2023-06-14T08:50:01;4.82;;;4.10;;
58414;SDS011;44210;42.706;18.344;2023-06-14T08:52:29;14.00;;;9.57;;
58414;SDS011;44210;42.706;18.344;2023-06-14T08:54:59;6.13;;;4.03;;
58414;SDS011;44210;42.706;18.344;2023-06-14T08:57:25;6.00;;;3.15;;
58414;SDS011;44210;42.706;18.344;2023-06-14T08:59:55;6.15;;;4.93;;
58414;SDS011;44210;42.706;18.344;2023-06-14T09:02:22;7.45;;;3.10;;
58414;SDS011;44210;42.706;18.344;2023-06-14T09:04:48;4.90;;;2.70;;
58414;SDS011;44210;42.706;18.344;2023-06-14T09:07:17;3.13;;;2.83;;
58414;SDS011;44210;42.706;18.344;2023-06-14T09:09:43;3.42;;;3.10;;
58414;SDS011;44210;42.706;18.344;2023-06-14T09:12:10;8.70;;;3.05;;
58414;SDS011;44210;42.706;18.344;2023-06-14T09:14:37;4.57;;;2.88;;
58414;SDS011;44210;42.706;18.344;2023-06-14T09:17:05;3.58;;;2.78;;
58414;SDS011;44210;42.706;18.344;2023-06-14T09:19:31;5.63;;;3.00;;
58414;SDS011;44210;42.706;18.344;2023-06-14T09:22:00;4.00;;;3.20;;
58414;SDS011;44210;42.706;18.344;2023-06-14T09:24:26;5.40;;;2.90;;
58414;SDS011;44210;42.706;18.344;2023-06-14T09:26:52;6.20;;;3.40;;
58414;SDS011;44210;42.706;18.344;2023-06-14T09:29:19;4.10;;;3.08;;
58414;SDS011;44210;42.706;18.344;2023-06-14T09:31:47;4.28;;;2.90;;
58414;SDS011;44210;42.706;18.344;2023-06-14T09:34:14;7.07;;;2.83;;
58414;SDS011;44210;42.706;18.344;2023-06-14T09:36:44;4.80;;;3.03;;
58414;SDS011;44210;42.706;18.344;2023-06-14T09:39:10;2.70;;;2.50;;
58414;SDS011;44210;42.706;18.344;2023-06-14T09:41:37;2.88;;;2.67;;
58414;SDS011;44210;42.706;18.344;2023-06-14T09:44:05;3.63;;;2.78;;
58414;SDS011;44210;42.706;18.344;2023-06-14T09:46:31;4.20;;;2.63;;
58414;SDS011;44210;42.706;18.344;2023-06-14T09:48:58;9.02;;;2.80;;
58414;SDS011;44210;42.706;18.344;2023-06-14T09:51:24;4.47;;;2.97;;
58414;SDS011;44210;42.706;18.344;2023-06-14T09:53:51;5.47;;;2.78;;
58414;SDS011;44210;42.706;18.344;2023-06-14T09:56:25;3.92;;;2.88;;
58414;SDS011;44210;42.706;18.344;2023-06-14T09:58:54;3.28;;;2.92;;
58414;SDS011;44210;42.706;18.344;2023-06-14T10:01:21;2.85;;;2.55;;
58414;SDS011;44210;42.706;18.344;2023-06-14T10:03:49;3.33;;;2.63;;
58414;SDS011;44210;42.706;18.344;2023-06-14T10:06:16;2.92;;;2.63;;
58414;SDS011;44210;42.706;18.344;2023-06-14T10:08:43;2.80;;;2.60;;
58414;SDS011;44210;42.706;18.344;2023-06-14T10:11:11;3.80;;;2.67;;
58414;SDS011;44210;42.706;18.344;2023-06-14T10:13:37;3.75;;;2.90;;
58414;SDS011;44210;42.706;18.344;2023-06-14T10:18:42;3.47;;;2.85;;
58414;SDS011;44210;42.706;18.344;2023-06-14T10:23:40;3.45;;;2.90;;
58414;SDS011;44210;42.706;18.344;2023-06-14T10:26:07;3.53;;;2.75;;
58414;SDS011;44210;42.706;18.344;2023-06-14T10:28:34;4.10;;;3.10;;
58414;SDS011;44210;42.706;18.344;2023-06-14T10:31:06;10.32;;;3.10;;
58414;SDS011;44210;42.706;18.344;2023-06-14T10:33:33;4.30;;;3.22;;
58414;SDS011;44210;42.706;18.344;2023-06-14T10:38:44;4.65;;;3.47;;
58414;SDS011;44210;42.706;18.344;2023-06-14T10:41:10;4.18;;;3.20;;
58414;SDS011;44210;42.706;18.344;2023-06-14T10:43:36;4.72;;;3.00;;
58414;SDS011;44210;42.706;18.344;2023-06-14T10:48:41;5.47;;;2.97;;
58414;SDS011;44210;42.706;18.344;2023-06-14T10:51:15;3.63;;;3.05;;
58414;SDS011;44210;42.706;18.344;2023-06-14T10:53:45;4.45;;;3.33;;
58414;SDS011;44210;42.706;18.344;2023-06-14T10:56:27;5.45;;;3.40;;
58414;SDS011;44210;42.706;18.344;2023-06-14T10:58:54;7.07;;;3.35;;
58414;SDS011;44210;42.706;18.344;2023-06-14T11:01:30;3.72;;;3.33;;
58414;SDS011;44210;42.706;18.344;2023-06-14T11:04:00;4.88;;;3.33;;
58414;SDS011;44210;42.706;18.344;2023-06-14T11:06:36;3.75;;;2.78;;
58414;SDS011;44210;42.706;18.344;2023-06-14T11:11:33;5.70;;;2.90;;
58414;SDS011;44210;42.706;18.344;2023-06-14T11:14:00;4.82;;;3.45;;
58414;SDS011;44210;42.706;18.344;2023-06-14T11:16:27;4.28;;;2.65;;
58414;SDS011;44210;42.706;18.344;2023-06-14T11:18:54;6.78;;;3.50;;
58414;SDS011;44210;42.706;18.344;2023-06-14T11:21:20;7.82;;;3.30;;
58414;SDS011;44210;42.706;18.344;2023-06-14T11:23:50;5.40;;;2.90;;
58414;SDS011;44210;42.706;18.344;2023-06-14T11:26:23;4.88;;;3.20;;
58414;SDS011;44210;42.706;18.344;2023-06-14T11:28:54;7.47;;;3.60;;
58414;SDS011;44210;42.706;18.344;2023-06-14T11:31:20;6.72;;;2.72;;
58414;SDS011;44210;42.706;18.344;2023-06-14T11:33:49;8.18;;;3.00;;
58414;SDS011;44210;42.706;18.344;2023-06-14T11:36:15;4.45;;;2.83;;
58414;SDS011;44210;42.706;18.344;2023-06-14T11:38:42;6.97;;;3.17;;
58414;SDS011;44210;42.706;18.344;2023-06-14T11:41:08;5.55;;;2.90;;
58414;SDS011;44210;42.706;18.344;2023-06-14T11:43:35;5.00;;;3.63;;
58414;SDS011;44210;42.706;18.344;2023-06-14T11:46:02;6.93;;;2.45;;
58414;SDS011;44210;42.706;18.344;2023-06-14T11:48:38;4.85;;;2.63;;
58414;SDS011;44210;42.706;18.344;2023-06-14T11:51:04;3.95;;;2.50;;
58414;SDS011;44210;42.706;18.344;2023-06-14T11:53:31;3.47;;;2.17;;
58414;SDS011;44210;42.706;18.344;2023-06-14T11:55:57;3.45;;;2.40;;
58414;SDS011;44210;42.706;18.344;2023-06-14T11:58:23;3.15;;;2.30;;
58414;SDS011;44210;42.706;18.344;2023-06-14T12:00:51;4.40;;;2.63;;
58414;SDS011;44210;42.706;18.344;2023-06-14T12:03:22;5.07;;;2.78;;
58414;SDS011;44210;42.706;18.344;2023-06-14T12:05:48;5.68;;;3.80;;
58414;SDS011;44210;42.706;18.344;2023-06-14T12:08:14;4.10;;;3.50;;
58414;SDS011;44210;42.706;18.344;2023-06-14T12:10:42;3.72;;;2.63;;
58414;SDS011;44210;42.706;18.344;2023-06-14T12:13:08;3.45;;;2.88;;
58414;SDS011;44210;42.706;18.344;2023-06-14T12:15:35;4.40;;;3.15;;
58414;SDS011;44210;42.706;18.344;2023-06-14T12:18:04;3.00;;;2.70;;
58414;SDS011;44210;42.706;18.344;2023-06-14T12:20:32;3.25;;;2.70;;
58414;SDS011;44210;42.706;18.344;2023-06-14T12:22:59;14.63;;;3.13;;
58414;SDS011;44210;42.706;18.344;2023-06-14T12:25:27;3.80;;;2.85;;
58414;SDS011;44210;42.706;18.344;2023-06-14T12:27:56;6.95;;;2.83;;
58414;SDS011;44210;42.706;18.344;2023-06-14T12:30:23;5.03;;;2.97;;
58414;SDS011;44210;42.706;18.344;2023-06-14T12:32:49;8.52;;;2.72;;
58414;SDS011;44210;42.706;18.344;2023-06-14T12:35:17;7.05;;;2.72;;
58414;SDS011;44210;42.706;18.344;2023-06-14T12:37:44;4.07;;;2.83;;
58414;SDS011;44210;42.706;18.344;2023-06-14T12:40:11;3.17;;;2.88;;
58414;SDS011;44210;42.706;18.344;2023-06-14T12:42:37;3.05;;;2.75;;
58414;SDS011;44210;42.706;18.344;2023-06-14T12:45:03;3.22;;;2.75;;
58414;SDS011;44210;42.706;18.344;2023-06-14T12:47:29;4.78;;;2.50;;
58414;SDS011;44210;42.706;18.344;2023-06-14T12:49:55;4.60;;;3.15;;
58414;SDS011;44210;42.706;18.344;2023-06-14T12:52:21;4.82;;;2.92;;
58414;SDS011;44210;42.706;18.344;2023-06-14T12:54:48;3.20;;;2.90;;
58414;SDS011;44210;42.706;18.344;2023-06-14T12:57:14;6.93;;;2.65;;
58414;SDS011;44210;42.706;18.344;2023-06-14T12:59:40;5.40;;;2.78;;
58414;SDS011;44210;42.706;18.344;2023-06-14T13:02:16;4.90;;;2.80;;
58414;SDS011;44210;42.706;18.344;2023-06-14T13:04:42;3.95;;;2.60;;
58414;SDS011;44210;42.706;18.344;2023-06-14T13:07:09;4.20;;;2.53;;
58414;SDS011;44210;42.706;18.344;2023-06-14T13:09:40;3.33;;;2.42;;
58414;SDS011;44210;42.706;18.344;2023-06-14T13:12:06;3.35;;;2.92;;
58414;SDS011;44210;42.706;18.344;2023-06-14T13:14:32;5.57;;;3.03;;
58414;SDS011;44210;42.706;18.344;2023-06-14T13:16:58;3.45;;;2.50;;
58414;SDS011;44210;42.706;18.344;2023-06-14T13:19:24;3.42;;;2.83;;
58414;SDS011;44210;42.706;18.344;2023-06-14T13:21:50;2.47;;;2.28;;
58414;SDS011;44210;42.706;18.344;2023-06-14T13:24:17;3.08;;;2.20;;
58414;SDS011;44210;42.706;18.344;2023-06-14T13:26:43;2.00;;;1.90;;
58414;SDS011;44210;42.706;18.344;2023-06-14T13:29:09;4.05;;;2.90;;
58414;SDS011;44210;42.706;18.344;2023-06-14T13:31:35;5.90;;;2.22;;
58414;SDS011;44210;42.706;18.344;2023-06-14T13:34:01;3.78;;;2.55;;
58414;SDS011;44210;42.706;18.344;2023-06-14T13:36:27;4.95;;;2.90;;
58414;SDS011;44210;42.706;18.344;2023-06-14T13:38:55;3.83;;;2.35;;
58414;SDS011;44210;42.706;18.344;2023-06-14T13:41:21;6.68;;;3.00;;
58414;SDS011;44210;42.706;18.344;2023-06-14T13:43:47;6.35;;;2.40;;
58414;SDS011;44210;42.706;18.344;2023-06-14T13:46:13;6.38;;;2.83;;
58414;SDS011;44210;42.706;18.344;2023-06-14T13:48:40;5.03;;;2.70;;
58414;SDS011;44210;42.706;18.344;2023-06-14T13:51:06;7.03;;;2.50;;
58414;SDS011;44210;42.706;18.344;2023-06-14T13:53:32;3.75;;;2.50;;
58414;SDS011;44210;42.706;18.344;2023-06-14T13:55:58;4.43;;;2.30;;
58414;SDS011;44210;42.706;18.344;2023-06-14T13:58:24;2.95;;;2.25;;
58414;SDS011;44210;42.706;18.344;2023-06-14T14:00:50;4.65;;;2.70;;
58414;SDS011;44210;42.706;18.344;2023-06-14T14:03:17;2.40;;;2.10;;
58414;SDS011;44210;42.706;18.344;2023-06-14T14:05:44;1.90;;;1.80;;
58414;SDS011;44210;42.706;18.344;2023-06-14T14:08:11;2.58;;;2.10;;
58414;SDS011;44210;42.706;18.344;2023-06-14T14:10:37;2.25;;;2.05;;
58414;SDS011;44210;42.706;18.344;2023-06-14T14:13:04;4.55;;;2.20;;
58414;SDS011;44210;42.706;18.344;2023-06-14T14:15:30;2.47;;;1.85;;
58414;SDS011;44210;42.706;18.344;2023-06-14T14:17:59;2.60;;;2.17;;
58414;SDS011;44210;42.706;18.344;2023-06-14T14:20:25;2.45;;;2.05;;
58414;SDS011;44210;42.706;18.344;2023-06-14T14:22:52;2.00;;;1.90;;
58414;SDS011;44210;42.706;18.344;2023-06-14T14:25:18;2.30;;;2.10;;
58414;SDS011;44210;42.706;18.344;2023-06-14T14:27:44;2.63;;;2.30;;
58414;SDS011;44210;42.706;18.344;2023-06-14T14:30:10;1.90;;;1.80;;
58414;SDS011;44210;42.706;18.344;2023-06-14T14:32:36;2.13;;;1.90;;
58414;SDS011;44210;42.706;18.344;2023-06-14T14:35:03;1.58;;;1.48;;
58414;SDS011;44210;42.706;18.344;2023-06-14T14:37:29;1.60;;;1.50;;
58414;SDS011;44210;42.706;18.344;2023-06-14T14:39:55;2.28;;;1.58;;
58414;SDS011;44210;42.706;18.344;2023-06-14T14:42:21;1.83;;;1.70;;
58414;SDS011;44210;42.706;18.344;2023-06-14T14:44:47;1.65;;;1.52;;
58414;SDS011;44210;42.706;18.344;2023-06-14T14:47:14;1.70;;;1.58;;